Flight Track Log - Related Links

Times and Time Zones

All times are in EDT time to prevent confusion due to time zone crossing. See the SWA1319 flight status page for this flight to view local times or setup timezone preferences in your user account.


Time Position Orientation Groundspeed Altitude Reporting Facility
EDT Latitude Longitude Course Direction KTS MPH feet Rate Location/Type
Tue 01:25:35 PM 33.6361 -86.7061 23° Northeast 259 298 4,800  Level Atlanta Center
Tue 01:26:29 PM 33.6792 -86.7397 327° Northwest 283 326 7,400 2,789 Climbing Atlanta Center
Tue 01:27:29 PM 33.6792 -86.8322 270° West 238 274 10,100 2,250 Climbing Atlanta Center
Tue 01:28:29 PM 33.6642 -86.9414 261° West 278 320 11,900 2,350 Climbing Atlanta Center
Tue 01:29:29 PM 33.6528 -87.0608 263° West 329 379 14,800 2,601 Climbing Atlanta Center
Tue 01:31:22 PM 33.6219 -87.3189 262° West 386 444 19,400 2,185 Climbing Memphis Center
Tue 01:32:22 PM 33.6103 -87.4314 263° West 397 457 21,100 1,750 Climbing Memphis Center
Tue 01:33:22 PM 33.5944 -87.5667 262° West 402 463 22,900 1,600 Climbing Memphis Center
Tue 01:34:22 PM 33.5786 -87.7042 262° West 412 474 24,300 1,650 Climbing Memphis Center
Tue 01:35:22 PM 33.5628 -87.8419 262° West 417 480 26,200 1,950 Climbing Memphis Center
Tue 01:36:22 PM 33.5486 -87.9744 263° West 417 480 28,200 900 Climbing Memphis Center
Tue 01:37:22 PM 33.5303 -88.1119 261° West 417 480 28,000 -100 Descending Memphis Center
Tue 01:38:22 PM 33.5183 -88.2517 264° West 422 486 28,000  Level Memphis Center
Tue 01:39:22 PM 33.5017 -88.3842 261° West 422 486 28,000  Level Memphis Center
Tue 01:40:22 PM 33.4869 -88.5192 263° West 422 486 28,000  Level Memphis Center
Tue 01:41:22 PM 33.4828 -88.6611 268° West 422 486 28,000  Level Memphis Center
Tue 01:42:22 PM 33.4844 -88.8006 271° West 422 486 28,000  Level Memphis Center
Tue 01:43:22 PM 33.4844 -88.9550 270° West 422 486 28,000  Level Memphis Center
Tue 01:44:22 PM 33.4817 -89.0969 269° West 422 486 28,000  Level Memphis Center
Tue 01:45:22 PM 33.4789 -89.2364 269° West 422 486 28,000  Level Memphis Center
Tue 01:46:22 PM 33.4800 -89.3733 271° West 422 486 28,000  Level Memphis Center
Tue 01:47:22 PM 33.4769 -89.5131 269° West 422 486 28,000  Level Memphis Center
Tue 01:48:22 PM 33.4736 -89.6525 268° West 422 486 28,000  Level Memphis Center
Tue 01:49:22 PM 33.4722 -89.7894 269° West 422 486 28,000  Level Memphis Center
Tue 01:50:22 PM 33.4706 -89.9289 269° West 422 486 28,000  Level Memphis Center
Tue 01:51:22 PM 33.4669 -90.0683 268° West 422 486 28,000  Level Memphis Center
Tue 01:52:22 PM 33.4650 -90.2053 269° West 422 486 28,000  Level Memphis Center
Tue 01:53:22 PM 33.4381 -90.3272 255° West 422 486 28,000  Level Memphis Center
Tue 01:54:22 PM 33.3775 -90.4442 238° Southwest 414 476 28,000  Level Memphis Center
Tue 01:55:22 PM 33.3125 -90.5636 237° Southwest 414 476 28,000  Level Memphis Center
Tue 01:56:22 PM 33.2478 -90.6825 237° Southwest 427 491 28,000  Level Memphis Center
Tue 01:57:22 PM 33.1867 -90.7992 238° Southwest 427 491 28,000  Level Memphis Center
Tue 01:58:22 PM 33.1217 -90.9178 237° Southwest 432 497 28,000  Level Memphis Center
Tue 01:59:22 PM 33.0606 -91.0339 238° Southwest 432 497 28,000  Level Memphis Center
Tue 02:00:22 PM 32.9972 -91.1525 238° Southwest 432 497 28,000  Level Memphis Center
Tue 02:01:22 PM 32.9317 -91.2706 237° Southwest 432 497 28,000  Level Memphis Center
Tue 02:03:31 PM 32.7917 -91.5300 237° Southwest 423 487 28,000  Level Fort Worth Center
Tue 02:04:31 PM 32.7628 -91.6703 256° West 423 487 28,000  Level Fort Worth Center
Tue 02:05:31 PM 32.7478 -91.7994 262° West 416 479 28,000  Level Fort Worth Center
Tue 02:06:31 PM 32.7422 -91.9086 267° West 407 468 28,000  Level Fort Worth Center
Tue 02:07:31 PM 32.7258 -92.0600 263° West 418 481 28,000  Level Fort Worth Center
Tue 02:08:31 PM 32.7106 -92.1967 262° West 423 487 28,000  Level Fort Worth Center
Tue 02:09:31 PM 32.6975 -92.3333 264° West 423 487 28,000  Level Fort Worth Center
Tue 02:10:31 PM 32.6819 -92.4700 262° West 428 493 28,000  Level Fort Worth Center
Tue 02:11:31 PM 32.6664 -92.6064 262° West 428 493 28,000  Level Fort Worth Center
Tue 02:12:31 PM 32.6547 -92.7378 264° West 420 483 28,000  Level Fort Worth Center
Tue 02:13:31 PM 32.6389 -92.8742 262° West 420 483 28,000  Level Fort Worth Center
Tue 02:14:31 PM 32.6228 -93.0083 262° West 415 478 28,000  Level Fort Worth Center
Tue 02:15:31 PM 32.6064 -93.1422 262° West 415 478 28,000  Level Fort Worth Center
Tue 02:16:31 PM 32.5919 -93.2736 263° West 410 472 28,000  Level Fort Worth Center
Tue 02:17:31 PM 32.5756 -93.4050 262° West 410 472 28,000  Level Fort Worth Center
Tue 02:18:31 PM 32.5608 -93.5386 263° West 410 472 28,000  Level Fort Worth Center
Tue 02:19:31 PM 32.5458 -93.6675 262° West 410 472 28,000  Level Fort Worth Center
Tue 02:20:31 PM 32.5311 -93.8011 263° West 410 472 28,000  Level Fort Worth Center
Tue 02:21:31 PM 32.5161 -93.9322 262° West 410 472 28,000  Level Fort Worth Center
Tue 02:22:31 PM 32.4986 -94.0636 261° West 410 472 28,000  Level Fort Worth Center
Tue 02:23:31 PM 32.4833 -94.1922 262° West 410 472 28,000  Level Fort Worth Center
Tue 02:24:31 PM 32.4678 -94.3233 262° West 410 472 28,000  Level Fort Worth Center
Tue 02:25:31 PM 32.4500 -94.4517 261° West 405 466 28,000 -400 Level Fort Worth Center
Tue 02:26:31 PM 32.4342 -94.5828 262° West 410 472 27,200 -900 Descending Fort Worth Center
Tue 02:27:31 PM 32.4206 -94.7186 263° West 415 478 26,200 -1,000 Descending Fort Worth Center
Tue 02:28:31 PM 32.4003 -94.8494 260° West 415 478 25,200 -1,000 Descending Fort Worth Center
Tue 02:29:31 PM 32.3819 -94.9853 261° West 410 472 24,200 -650 Descending Fort Worth Center
Tue 02:30:31 PM 32.3617 -95.1311 261° West 410 472 23,900 -800 Descending Fort Worth Center
Tue 02:31:31 PM 32.3392 -95.2644 259° West 410 472 22,600 -1,100 Descending Fort Worth Center
Tue 02:32:31 PM 32.3200 -95.3778 259° West 378 435 21,700 -1,100 Descending Fort Worth Center
Tue 02:33:31 PM 32.3050 -95.4767 260° West 334 384 20,400 -1,500 Descending Fort Worth Center
Tue 02:34:31 PM 32.3231 -95.5672 283° West 273 314 18,700 -1,250 Descending Fort Worth Center
Tue 02:35:31 PM 32.3536 -95.6672 290° West 302 348 17,900 -800 Descending Fort Worth Center
Tue 02:36:31 PM 32.3886 -95.7750 291° West 338 389 17,100 -950 Descending Fort Worth Center
Tue 02:37:31 PM 32.4211 -95.8800 290° West 348 400 16,000 -1,050 Descending Fort Worth Center
Tue 02:38:31 PM 32.4536 -95.9881 290° West 348 400 15,000 -1,450 Descending Fort Worth Center
Tue 02:39:31 PM 32.4819 -96.0811 290° West 342 394 13,100 -2,100 Descending Fort Worth Center
Tue 02:40:31 PM 32.5186 -96.1939 291° West 342 394 10,800 -1,550 Descending Fort Worth Center
Tue 02:41:31 PM 32.5464 -96.2822 290° West 331 381 10,000 -1,000 Descending Fort Worth Center
Tue 02:42:31 PM 32.5767 -96.3828 290° West 306 352 8,800 -850 Descending Fort Worth Center
Tue 02:43:31 PM 32.6003 -96.4592 290° West 286 329 8,300 -550 Descending Fort Worth Center
Tue 02:44:31 PM 32.6258 -96.5353 292° West 243 280 7,700 -950 Descending Fort Worth Center
Tue 02:45:31 PM 32.6408 -96.5967 286° West 222 255 6,400 -1,400 Descending Fort Worth Center
Tue 02:46:31 PM 32.6789 -96.6681 302° West 222 255 4,900 -1,423 Descending Fort Worth Center
Tue 02:47:08 PM 32.7167 -96.7000 325° Northwest 241 277 4,100 -1,041 Descending Dallas / Fort Worth TRACON
Tue 02:48:09 PM 32.7500 -96.7500 308° West 222 255 3,200 -1,091 Descending Dallas / Fort Worth TRACON
Tue 02:49:09 PM 32.7833 -96.8000 308° West 159 183 1,900 -1,100 Descending Dallas / Fort Worth TRACON
Tue 02:50:09 PM 32.8167 -96.8167 337° Northwest 133 153 1,000 -900 Descending Dallas / Fort Worth TRACON

Login

Don't have an account? Register now (free) for customized features, flight alerts, and more!